TimeCDT,TemperatureF,Dew PointF,Humidity,Sea Level PressureIn,VisibilityMPH,Wind Direction,Wind SpeedMPH,Gust SpeedMPH,PrecipitationIn,Events,Conditions,WindDirDegrees,DateUTC
12:53 AM,46.0,42.1,86,30.25,10.0,Calm,Calm,-,N/A,,Overcast,0,2012-10-07 05:53:00
2:53 AM,46.0,43.0,89,30.26,10.0,West,3.5,-,N/A,,Overcast,280,2012-10-07 07:53:00
3:53 AM,46.9,43.0,86,30.24,10.0,Calm,Calm,-,N/A,,Mostly Cloudy,0,2012-10-07 08:53:00
4:53 AM,46.9,41.0,80,30.25,10.0,Variable,3.5,-,N/A,,Overcast,0,2012-10-07 09:53:00
5:53 AM,46.9,39.9,77,30.27,10.0,North,5.8,-,N/A,,Overcast,10,2012-10-07 10:53:00
6:53 AM,44.1,39.0,82,30.27,10.0,ENE,4.6,-,N/A,,Clear,70,2012-10-07 11:53:00
7:53 AM,42.1,39.0,89,30.28,10.0,Calm,Calm,-,N/A,,Clear,0,2012-10-07 12:53:00
8:53 AM,48.0,39.9,74,30.29,10.0,ENE,4.6,-,N/A,,Clear,60,2012-10-07 13:53:00
9:53 AM,51.1,37.9,61,30.28,10.0,East,9.2,-,N/A,,Clear,90,2012-10-07 14:53:00
10:53 AM,52.0,37.9,59,30.27,10.0,ENE,5.8,-,N/A,,Clear,70,2012-10-07 15:53:00
12:53 PM,57.9,37.0,46,30.25,10.0,Calm,Calm,-,N/A,,Partly Cloudy,0,2012-10-07 17:53:00
1:53 PM,57.9,37.0,46,30.22,10.0,NNW,4.6,-,N/A,,Overcast,330,2012-10-07 18:53:00
2:53 PM,57.9,37.0,46,30.19,10.0,NE,8.1,-,N/A,,Overcast,40,2012-10-07 19:53:00
3:53 PM,53.1,44.1,71,30.19,6.0,NNE,3.5,-,0.01,Rain,Light Rain,30,2012-10-07 20:53:00
4:53 PM,54.0,43.0,66,30.19,10.0,East,3.5,-,0.00,,Overcast,100,2012-10-07 21:53:00
5:53 PM,53.1,43.0,69,30.18,10.0,Calm,Calm,-,N/A,,Overcast,0,2012-10-07 22:53:00
6:53 PM,52.0,44.1,74,30.18,10.0,ENE,3.5,-,N/A,,Overcast,70,2012-10-07 23:53:00
7:53 PM,52.0,46.9,83,30.18,10.0,Calm,Calm,-,N/A,,Overcast,0,2012-10-08 00:53:00
8:53 PM,51.1,46.9,86,30.20,8.0,Calm,Calm,-,N/A,,Overcast,0,2012-10-08 01:53:00
9:53 PM,51.1,46.9,86,30.20,10.0,Calm,Calm,-,N/A,,Overcast,0,2012-10-08 02:53:00
10:53 PM,51.1,46.9,86,30.22,10.0,West,3.5,-,N/A,,Overcast,280,2012-10-08 03:53:00
11:53 PM,50.0,46.9,89,30.21,10.0,Calm,Calm,-,N/A,,Overcast,0,2012-10-08 04:53:00